Time;durP1;ratioP1;P1;durP2;ratioP2;P2;SDS_P1;SDS_P2;PMS_P1;PMS_P2;Temp;Humidity;BMP_temperature;BMP_pressure;BME280_temperature;BME280_humidity;BME280_pressure;Samples;Min_cycle;Max_cycle;Signal;HPM_P1;HPM_P2
2022/03/16 00:02:23;;;;;;;81.75;48.50;;;;;;;12.00;64.46;101769.59;6127392;23;20005;-84
2022/03/16 00:04:50;;;;;;;79.93;48.72;;;;;;;11.93;64.99;101767.47;6125653;23;20010;-85
2022/03/16 00:07:16;;;;;;;84.75;47.88;;;;;;;11.99;64.61;101760.78;6127813;23;20010;-83
2022/03/16 00:09:43;;;;;;;85.07;49.17;;;;;;;11.94;64.92;101757.69;6127744;23;20014;-88
2022/03/16 00:12:09;;;;;;;80.70;48.20;;;;;;;11.98;64.84;101755.59;6126061;23;20001;-84
2022/03/16 00:14:35;;;;;;;81.90;46.97;;;;;;;12.08;64.63;101764.41;6127828;23;20033;-84
2022/03/16 00:17:01;;;;;;;83.53;49.30;;;;;;;12.14;64.39;101762.03;6128302;23;20037;-87
2022/03/16 00:19:27;;;;;;;79.78;48.15;;;;;;;12.06;64.57;101755.75;6127527;23;20010;-87
2022/03/16 00:21:52;;;;;;;77.47;48.35;;;;;;;12.13;64.37;101751.56;6127194;23;20086;-86
2022/03/16 00:24:18;;;;;;;81.32;49.47;;;;;;;12.10;64.53;101741.19;6127425;23;20014;-86
2022/03/16 00:26:43;;;;;;;80.57;48.63;;;;;;;12.17;64.38;101747.59;6127330;23;20448;-86
2022/03/16 00:29:09;;;;;;;84.05;47.53;;;;;;;12.25;64.13;101745.09;6127272;23;20022;-85
2022/03/16 00:31:34;;;;;;;81.65;48.83;;;;;;;12.26;64.05;101733.47;6127038;23;20031;-87
2022/03/16 00:34:01;;;;;;;87.90;49.65;;;;;;;12.46;63.31;101734.28;6125644;23;20323;-88
2022/03/16 00:36:27;;;;;;;74.40;46.28;;;;;;;12.37;63.58;101727.97;6127266;23;20006;-87
2022/03/16 00:38:52;;;;;;;83.13;49.45;;;;;;;12.22;63.91;101730.28;6125215;23;20086;-87
2022/03/16 00:41:19;;;;;;;74.20;46.05;;;;;;;12.21;63.97;101717.94;6126933;23;20010;-86
2022/03/16 00:43:45;;;;;;;78.55;48.33;;;;;;;12.17;64.26;101715.72;6125827;23;20018;-85
2022/03/16 00:46:11;;;;;;;73.97;46.05;;;;;;;12.18;64.37;101722.72;6100957;23;20018;-86
2022/03/16 00:48:37;;;;;;;74.93;46.00;;;;;;;12.23;64.15;101713.31;6100607;23;20136;-88
2022/03/16 00:51:03;;;;;;;76.88;47.13;;;;;;;12.27;64.01;101705.91;6126776;23;20422;-87
2022/03/16 00:53:30;;;;;;;74.93;44.42;;;;;;;12.31;63.65;101712.59;6149183;23;20010;-84
2022/03/16 00:55:56;;;;;;;76.32;46.25;;;;;;;12.26;63.64;101709.56;6126781;23;20017;-85
2022/03/16 00:58:24;;;;;;;68.13;43.03;;;;;;;12.31;63.47;101697.50;6126549;23;20012;-86
2022/03/16 01:00:50;;;;;;;71.35;44.45;;;;;;;12.33;63.49;101700.00;6126331;23;20061;-84
2022/03/16 01:03:15;;;;;;;73.05;43.90;;;;;;;12.30;63.53;101694.97;6126658;23;20092;-86
2022/03/16 01:05:41;;;;;;;74.35;43.38;;;;;;;12.26;63.35;101694.41;6128648;23;20184;-84
2022/03/16 01:08:06;;;;;;;75.75;44.45;;;;;;;12.05;64.34;101679.66;6130241;23;20160;-85
2022/03/16 01:10:32;;;;;;;74.53;43.53;;;;;;;12.17;63.81;101681.16;6130520;23;20002;-84
2022/03/16 01:12:57;;;;;;;83.43;43.60;;;;;;;12.21;63.78;101670.13;6129252;23;20029;-86
2022/03/16 01:15:23;;;;;;;75.13;43.95;;;;;;;12.14;63.95;101668.16;6104114;23;20029;-83
2022/03/16 01:18:08;;;;;;;65.45;41.35;;;;;;;12.24;63.72;101668.97;6134441;23;20491;-81
2022/03/16 01:20:33;;;;;;;72.88;41.13;;;;;;;11.97;64.99;101663.59;6152913;23;20013;-82
2022/03/16 01:22:59;;;;;;;70.97;42.58;;;;;;;11.97;64.70;101655.63;6147896;23;20041;-85
2022/03/16 01:25:24;;;;;;;68.55;40.75;;;;;;;11.93;64.90;101659.56;6126810;23;20040;-87
2022/03/16 01:27:50;;;;;;;70.55;43.25;;;;;;;11.71;65.76;101661.53;6126601;23;20014;-85
2022/03/16 01:30:16;;;;;;;65.57;40.42;;;;;;;11.62;66.47;101656.22;6124596;23;20342;-87
2022/03/16 01:32:42;;;;;;;66.85;39.80;;;;;;;11.73;66.17;101654.25;6124600;23;20021;-86
2022/03/16 01:35:09;;;;;;;70.93;40.92;;;;;;;11.78;66.13;101657.34;6126114;23;20013;-85
2022/03/16 01:37:35;;;;;;;69.00;40.70;;;;;;;11.74;66.38;101655.94;6126042;23;20477;-87
2022/03/16 01:40:01;;;;;;;64.43;40.67;;;;;;;11.93;65.25;101649.78;6126236;23;20002;-83
2022/03/16 01:42:27;;;;;;;73.43;39.95;;;;;;;11.85;65.95;101647.84;6126056;23;20017;-87
2022/03/16 01:44:55;;;;;;;63.53;39.38;;;;;;;11.90;65.84;101650.03;6125714;23;20037;-85
2022/03/16 01:47:22;;;;;;;63.13;39.15;;;;;;;11.87;65.74;101643.19;6126021;23;20445;-85
2022/03/16 01:49:50;;;;;;;62.67;38.40;;;;;;;11.95;65.46;101631.88;6126251;23;20041;-85
2022/03/16 01:52:27;;;;;;;64.43;39.83;;;;;;;12.01;64.95;101631.28;6126334;23;20013;-85
2022/03/16 01:54:54;;;;;;;66.65;38.97;;;;;;;12.01;65.14;101625.13;6124510;23;20017;-86
2022/03/16 01:57:20;;;;;;;61.40;38.72;;;;;;;11.90;65.63;101621.66;6126270;23;20034;-85
2022/03/16 01:59:46;;;;;;;68.43;39.72;;;;;;;11.97;65.46;101624.56;6125038;23;20137;-85
2022/03/16 02:02:14;;;;;;;59.97;37.80;;;;;;;12.01;65.41;101619.81;6148854;23;20438;-87
2022/03/16 02:04:41;;;;;;;66.88;39.58;;;;;;;12.06;65.07;101612.25;6148808;23;20025;-86
2022/03/16 02:07:07;;;;;;;66.25;39.63;;;;;;;11.91;65.57;101606.56;6125940;23;20002;-88
2022/03/16 02:09:33;;;;;;;61.78;38.13;;;;;;;12.11;65.10;101620.63;6099583;23;20010;-86
2022/03/16 02:11:59;;;;;;;60.28;38.33;;;;;;;11.89;65.98;101612.03;6125740;23;20006;-84
2022/03/16 02:14:25;;;;;;;64.78;39.65;;;;;;;11.66;67.21;101615.97;6126176;23;20080;-85
2022/03/16 02:16:51;;;;;;;65.70;39.10;;;;;;;11.55;68.21;101615.28;6126255;23;20025;-86
2022/03/16 02:19:17;;;;;;;67.07;40.53;;;;;;;11.40;69.01;101612.22;6125736;23;20029;-86
2022/03/16 02:21:46;;;;;;;65.07;38.20;;;;;;;11.37;69.00;101605.38;6126096;23;20076;-85
2022/03/16 02:24:12;;;;;;;71.47;39.28;;;;;;;11.41;69.01;101611.22;6125915;23;20020;-87
2022/03/16 02:26:39;;;;;;;68.50;38.88;;;;;;;11.36;68.99;101608.19;6126032;23;20014;-87
2022/03/16 02:29:06;;;;;;;63.35;38.83;;;;;;;11.56;68.22;101601.88;6125914;23;20093;-85
2022/03/16 02:31:34;;;;;;;62.15;37.55;;;;;;;11.53;67.97;101599.50;6126248;23;20006;-85
2022/03/16 02:34:00;;;;;;;66.00;37.97;;;;;;;11.53;67.78;101599.50;6126271;23;20085;-86
2022/03/16 02:36:25;;;;;;;60.58;36.88;;;;;;;11.67;67.32;101606.16;6125983;23;20018;-86
2022/03/16 02:38:51;;;;;;;63.15;37.22;;;;;;;11.72;67.00;101596.00;6126069;23;20009;-85
2022/03/16 02:41:16;;;;;;;57.15;36.50;;;;;;;11.78;66.90;101598.91;6125838;23;20438;-85
2022/03/16 02:43:42;;;;;;;68.00;36.50;;;;;;;11.66;67.37;101594.72;6126229;23;20045;-87
2022/03/16 02:46:08;;;;;;;60.63;36.72;;;;;;;11.57;67.52;101595.56;6126491;23;20044;-88
2022/03/16 02:48:33;;;;;;;63.05;36.28;;;;;;;11.65;67.21;101593.03;6126109;23;20085;-87
2022/03/16 02:50:58;;;;;;;59.78;35.90;;;;;;;11.69;66.75;101583.81;6125988;23;20070;-87
2022/03/16 02:53:24;;;;;;;59.10;36.88;;;;;;;11.57;67.47;101579.63;6127511;23;20350;-86
2022/03/16 02:55:50;;;;;;;61.20;36.97;;;;;;;11.48;68.07;101580.50;6127927;23;20398;-83
2022/03/16 02:58:17;;;;;;;59.35;35.17;;;;;;;11.42;68.19;101575.75;6127863;23;20530;-88
2022/03/16 03:00:43;;;;;;;63.35;36.55;;;;;;;11.50;68.07;101567.91;6126183;23;20002;-85
2022/03/16 03:03:09;;;;;;;65.65;35.33;;;;;;;11.55;67.75;101568.31;6127894;23;20002;-84
2022/03/16 03:05:35;;;;;;;56.33;34.75;;;;;;;11.73;66.72;101558.66;6127729;23;20038;-83
2022/03/16 03:08:00;;;;;;;58.60;34.60;;;;;;;11.75;66.60;101563.84;6127395;23;20010;-85
2022/03/16 03:10:26;;;;;;;56.92;34.17;;;;;;;11.86;66.08;101559.16;6127946;23;20530;-86
2022/03/16 03:12:52;;;;;;;54.00;33.67;;;;;;;11.80;66.19;101554.44;6125777;23;20033;-84
2022/03/16 03:15:18;;;;;;;58.88;33.78;;;;;;;11.94;65.54;101555.78;6127772;23;20010;-86
2022/03/16 03:17:44;;;;;;;52.38;33.80;;;;;;;11.99;65.22;101553.56;6127989;23;20061;-84
2022/03/16 03:20:11;;;;;;;53.10;33.85;;;;;;;11.87;65.44;101550.22;6127269;23;20079;-82
2022/03/16 03:22:37;;;;;;;60.75;32.95;;;;;;;11.85;65.49;101562.84;6127509;23;20036;-83
2022/03/16 03:25:04;;;;;;;54.20;32.47;;;;;;;12.03;65.23;101546.94;6127639;23;20002;-85
2022/03/16 03:27:33;;;;;;;52.83;31.95;;;;;;;12.10;64.57;101548.03;6127449;23;20021;-84
2022/03/16 03:29:59;;;;;;;56.15;32.83;;;;;;;12.20;64.26;101551.47;6127557;23;20013;-82
2022/03/16 03:32:25;;;;;;;51.65;32.60;;;;;;;12.24;64.01;101549.38;6127516;23;20017;-87
2022/03/16 03:34:51;;;;;;;58.47;34.17;;;;;;;12.27;63.85;101546.41;6127127;23;20315;-82
2022/03/16 03:37:18;;;;;;;51.90;32.95;;;;;;;12.30;63.70;101551.44;6127386;23;20102;-84
2022/03/16 03:39:44;;;;;;;60.08;35.17;;;;;;;12.20;63.89;101545.31;6127694;23;20049;-83
2022/03/16 03:42:10;;;;;;;55.80;34.10;;;;;;;12.20;63.87;101540.00;6127099;23;20021;-83
2022/03/16 03:44:37;;;;;;;55.80;33.47;;;;;;;12.09;64.29;101543.72;6127356;23;20030;-86
2022/03/16 03:47:07;;;;;;;55.92;34.03;;;;;;;11.93;65.31;101542.69;6127951;23;20038;-83
2022/03/16 03:49:37;;;;;;;54.38;33.70;;;;;;;11.99;65.09;101534.97;6126850;23;20334;-84
2022/03/16 03:52:05;;;;;;;56.90;34.47;;;;;;;11.90;65.47;101539.31;6127514;23;20093;-84
2022/03/16 03:54:31;;;;;;;58.53;33.80;;;;;;;11.99;65.17;101532.31;6128672;23;20504;-83
2022/03/16 03:56:57;;;;;;;62.30;34.03;;;;;;;12.05;65.00;101530.88;6150499;23;20345;-84
2022/03/16 03:59:23;;;;;;;56.55;34.67;;;;;;;11.92;65.28;101531.22;6128064;23;20012;-86
2022/03/16 04:01:50;;;;;;;58.92;34.53;;;;;;;11.78;66.11;101535.16;6128382;23;20367;-85
2022/03/16 04:04:16;;;;;;;59.25;34.78;;;;;;;11.86;65.93;101527.28;6127764;23;20010;-85
2022/03/16 04:06:41;;;;;;;64.28;36.58;;;;;;;11.82;66.18;101520.63;6131289;23;20069;-86
2022/03/16 04:09:07;;;;;;;56.97;34.30;;;;;;;11.76;66.63;101515.91;6135231;23;20079;-86
2022/03/16 04:11:32;;;;;;;55.55;35.40;;;;;;;11.59;67.47;101513.97;6144535;23;20013;-82
2022/03/16 04:13:58;;;;;;;57.10;34.47;;;;;;;11.69;67.00;101514.78;6154307;23;20006;-85
2022/03/16 04:16:25;;;;;;;56.35;34.75;;;;;;;11.68;67.42;101518.41;6153955;23;20021;-84
2022/03/16 04:18:50;;;;;;;64.25;34.78;;;;;;;11.67;67.22;101513.22;6127929;23;20033;-85
2022/03/16 04:21:16;;;;;;;56.13;34.28;;;;;;;11.75;67.00;101514.22;6127787;23;20426;-85
2022/03/16 04:23:41;;;;;;;58.85;35.10;;;;;;;11.79;66.71;101518.25;6127248;23;20088;-87
2022/03/16 04:26:08;;;;;;;57.53;35.10;;;;;;;11.93;66.09;101504.47;6127226;23;20023;-85
2022/03/16 04:28:34;;;;;;;61.05;33.58;;;;;;;11.89;66.06;101507.59;6127726;23;20014;-85
2022/03/16 04:31:00;;;;;;;58.35;34.00;;;;;;;11.69;67.10;101506.81;6127478;23;20092;-84
2022/03/16 04:33:27;;;;;;;61.67;34.63;;;;;;;11.79;66.38;101497.03;6127397;23;20014;-87
2022/03/16 04:35:52;;;;;;;56.45;33.85;;;;;;;11.75;66.66;101502.75;6127247;23;20033;-86
2022/03/16 04:38:19;;;;;;;57.30;34.75;;;;;;;11.70;66.85;101503.19;6133363;23;20010;-85
2022/03/16 04:40:45;;;;;;;58.40;35.03;;;;;;;11.62;67.56;101505.72;6153865;23;20013;-85
2022/03/16 04:43:11;;;;;;;60.40;33.95;;;;;;;11.67;67.50;101506.09;6146833;23;20085;-85
2022/03/16 04:45:38;;;;;;;53.95;33.15;;;;;;;11.87;66.83;101497.09;6144558;23;20022;-86
2022/03/16 04:48:08;;;;;;;59.42;34.47;;;;;;;11.91;66.76;101492.34;6143302;23;20006;-85
2022/03/16 04:50:35;;;;;;;59.25;34.22;;;;;;;11.73;67.20;101494.91;6146219;23;20386;-85
2022/03/16 04:53:02;;;;;;;64.78;33.78;;;;;;;11.86;66.86;101497.28;6145340;23;20018;-83
2022/03/16 04:55:27;;;;;;;55.47;32.65;;;;;;;11.96;66.50;101494.56;6137361;23;20014;-86
2022/03/16 04:57:55;;;;;;;53.95;34.08;;;;;;;11.95;66.45;101487.56;6100962;23;20389;-85
2022/03/16 05:00:21;;;;;;;59.08;34.25;;;;;;;11.73;67.47;101488.81;6128541;23;20002;-86
2022/03/16 05:02:48;;;;;;;60.03;34.10;;;;;;;11.52;68.52;101496.94;6127591;23;20447;-86
2022/03/16 05:05:14;;;;;;;60.80;35.55;;;;;;;11.37;69.37;101487.75;6127198;23;20010;-86
2022/03/16 05:07:40;;;;;;;58.90;34.65;;;;;;;11.37;69.62;101493.03;6126044;23;20069;-87
2022/03/16 05:10:12;;;;;;;55.55;34.50;;;;;;;11.49;69.17;101497.22;6125644;23;20014;-86
2022/03/16 05:12:39;;;;;;;52.90;33.60;;;;;;;11.59;68.70;101486.56;6126690;23;20037;-85
2022/03/16 05:15:07;;;;;;;57.42;32.85;;;;;;;11.64;68.61;101487.81;6126617;23;20008;-85
2022/03/16 05:17:33;;;;;;;62.15;34.33;;;;;;;11.53;69.37;101485.34;6126848;23;20081;-82
2022/03/16 05:19:59;;;;;;;63.25;36.85;;;;;;;11.57;69.01;101492.00;6126434;23;20596;-83
2022/03/16 05:22:25;;;;;;;64.47;34.28;;;;;;;11.53;69.26;101481.84;6126498;23;20041;-82
2022/03/16 05:24:50;;;;;;;62.80;34.95;;;;;;;11.37;70.53;101482.44;6126751;23;20006;-87
2022/03/16 05:27:19;;;;;;;65.00;35.65;;;;;;;11.25;71.31;101483.59;6126487;23;20014;-85
2022/03/16 05:29:45;;;;;;;66.05;35.33;;;;;;;11.13;71.61;101487.38;6125784;23;20009;-87
2022/03/16 05:32:10;;;;;;;62.75;34.35;;;;;;;11.37;70.68;101485.09;6126264;23;20016;-85
2022/03/16 05:34:36;;;;;;;55.53;33.90;;;;;;;11.56;69.60;101487.72;6126184;23;20060;-88
2022/03/16 05:37:02;;;;;;;67.20;34.15;;;;;;;11.69;68.93;101485.56;6101819;23;20064;-83
2022/03/16 05:39:27;;;;;;;70.05;36.17;;;;;;;11.66;69.05;101483.19;6134426;23;20006;-84
2022/03/16 05:41:53;;;;;;;61.72;35.05;;;;;;;11.75;68.97;101487.66;6131715;23;20010;-83
2022/03/16 05:44:19;;;;;;;61.67;35.17;;;;;;;11.79;68.82;101483.75;6132994;23;20029;-84
2022/03/16 05:46:44;;;;;;;65.82;36.15;;;;;;;11.85;68.52;101485.81;6132496;23;20020;-81
2022/03/16 05:49:10;;;;;;;63.53;36.47;;;;;;;11.87;68.27;101491.78;6127745;23;20018;-80
2022/03/16 05:51:35;;;;;;;71.05;37.35;;;;;;;11.69;68.78;101488.22;6126032;23;20517;-82
2022/03/16 05:54:01;;;;;;;61.42;36.25;;;;;;;11.59;69.71;101481.25;6125962;23;20052;-83
2022/03/16 05:56:27;;;;;;;57.63;34.95;;;;;;;11.65;69.63;101480.69;6125584;23;20013;-86
2022/03/16 05:58:52;;;;;;;60.65;34.08;;;;;;;11.82;68.67;101477.28;6124856;23;20434;-84
2022/03/16 06:01:18;;;;;;;64.57;36.47;;;;;;;11.88;68.20;101484.66;6126354;23;20088;-85
2022/03/16 06:03:43;;;;;;;59.47;36.05;;;;;;;11.82;68.31;101482.59;6126839;23;20020;-86
2022/03/16 06:06:09;;;;;;;64.97;36.25;;;;;;;11.61;68.92;101480.13;6126699;23;20014;-85
2022/03/16 06:08:35;;;;;;;61.10;34.67;;;;;;;11.58;69.22;101472.47;6125361;23;20041;-85
2022/03/16 06:11:00;;;;;;;62.78;35.92;;;;;;;11.49;69.67;101476.00;6124786;23;20006;-85
2022/03/16 06:13:26;;;;;;;64.55;36.35;;;;;;;11.46;70.17;101475.44;6124159;23;20012;-83
2022/03/16 06:15:52;;;;;;;59.28;35.13;;;;;;;11.71;69.29;101475.66;6125590;23;20028;-84
2022/03/16 06:18:17;;;;;;;65.75;35.30;;;;;;;11.68;69.54;101475.06;6125700;23;20010;-83
2022/03/16 06:20:43;;;;;;;65.80;35.67;;;;;;;11.64;69.99;101468.38;6127373;23;20010;-82
2022/03/16 06:23:08;;;;;;;70.57;36.75;;;;;;;11.54;70.56;101483.50;6099635;23;20065;-83
2022/03/16 06:25:35;;;;;;;76.25;38.47;;;;;;;11.64;71.45;101479.84;6128852;23;20006;-85
2022/03/16 06:28:01;;;;;;;66.88;35.72;;;;;;;11.59;71.19;101495.38;6131233;23;20017;-80
2022/03/16 06:30:27;;;;;;;63.85;35.85;;;;;;;11.62;71.21;101492.44;6127144;23;20002;-81
2022/03/16 06:32:53;;;;;;;70.88;37.13;;;;;;;11.55;71.69;101491.34;6127872;23;20041;-82
2022/03/16 06:35:18;;;;;;;68.45;35.72;;;;;;;11.68;71.59;101486.53;6128822;23;20338;-82
2022/03/16 06:37:45;;;;;;;74.43;37.22;;;;;;;11.61;72.05;101498.72;6128975;23;20006;-81
2022/03/16 06:40:11;;;;;;;81.93;35.33;;;;;;;11.48;72.96;101498.19;6128077;23;20443;-84
2022/03/16 06:42:57;;;;;;;67.47;35.47;;;;;;;11.50;72.38;101503.38;6129311;23;20009;-82
2022/03/16 06:45:24;;;;;;;71.47;36.78;;;;;;;11.41;72.38;101500.59;6130028;23;20024;-85
2022/03/16 06:47:53;;;;;;;63.08;34.92;;;;;;;11.53;72.22;101503.09;6129909;23;20002;-85
2022/03/16 06:50:20;;;;;;;58.38;35.10;;;;;;;11.60;71.96;101499.69;6127788;23;20014;-81
2022/03/16 06:52:46;;;;;;;68.97;37.28;;;;;;;11.57;71.88;101499.13;6130587;23;20013;-84
2022/03/16 06:55:15;;;;;;;61.83;34.92;;;;;;;11.72;71.45;101493.28;6103039;23;20078;-82
2022/03/16 06:57:40;;;;;;;73.22;37.38;;;;;;;11.70;71.93;101499.69;6129211;23;20038;-82
2022/03/16 07:00:09;;;;;;;56.53;34.97;;;;;;;11.83;71.66;101501.03;6130191;23;20038;-82
2022/03/16 07:03:07;;;;;;;64.97;36.30;;;;;;;11.96;70.79;101498.06;6132086;23;20006;-83
2022/03/16 07:05:38;;;;;;;67.38;37.72;;;;;;;11.95;71.14;101503.50;6095488;23;20007;-87
2022/03/16 07:08:07;;;;;;;63.28;35.45;;;;;;;11.89;71.36;101511.09;6089831;23;20015;-83
2022/03/16 07:10:34;;;;;;;64.53;34.83;;;;;;;12.20;70.04;101506.31;6067360;23;20019;-84
2022/03/16 07:13:01;;;;;;;64.35;34.72;;;;;;;12.24;68.99;101514.81;6067519;23;20031;-84
2022/03/16 07:15:27;;;;;;;62.72;36.50;;;;;;;12.10;68.27;101518.81;6101073;23;20068;-84
2022/03/16 07:17:54;;;;;;;69.68;36.53;;;;;;;12.03;68.48;101514.25;6128100;23;20005;-87
2022/03/16 07:20:20;;;;;;;67.63;36.83;;;;;;;11.91;69.64;101519.75;6128023;23;20014;-85
2022/03/16 07:22:46;;;;;;;66.25;35.75;;;;;;;11.82;70.47;101515.31;6128934;23;20430;-84
2022/03/16 07:25:12;;;;;;;69.05;36.50;;;;;;;11.80;70.47;101511.09;6128148;23;20018;-86
2022/03/16 07:27:40;;;;;;;65.43;36.08;;;;;;;11.81;70.59;101502.16;6127690;23;20422;-84
2022/03/16 07:30:08;;;;;;;67.65;35.40;;;;;;;11.82;70.57;101510.00;6127781;23;20006;-85
2022/03/16 07:32:40;;;;;;;62.50;36.20;;;;;;;11.90;69.86;101511.91;6150952;23;20014;-83
2022/03/16 07:35:07;;;;;;;56.57;34.80;;;;;;;12.01;69.53;101519.69;6127831;23;20010;-83
2022/03/16 07:37:34;;;;;;;67.70;35.40;;;;;;;11.95;69.90;101514.97;6127336;23;20381;-85
2022/03/16 07:40:01;;;;;;;54.13;34.88;;;;;;;12.00;69.67;101512.69;6128295;23;20133;-84
2022/03/16 07:42:26;;;;;;;60.40;34.08;;;;;;;11.99;70.36;101515.53;6128076;23;20014;-84
2022/03/16 07:44:52;;;;;;;64.88;37.33;;;;;;;11.98;70.52;101513.84;6128069;23;20009;-85
2022/03/16 07:47:17;;;;;;;72.28;36.70;;;;;;;11.95;70.65;101520.28;6129058;23;20018;-88
2022/03/16 07:49:42;;;;;;;62.78;35.75;;;;;;;11.95;70.33;101522.09;6126994;23;20038;-85
2022/03/16 07:52:08;;;;;;;60.70;35.78;;;;;;;12.02;69.34;101523.19;6128135;23;20014;-84
2022/03/16 07:54:34;;;;;;;62.78;35.83;;;;;;;12.02;70.21;101520.53;6129077;23;20390;-84
2022/03/16 07:57:00;;;;;;;66.28;36.85;;;;;;;11.97;69.96;101513.00;6127722;23;20013;-84
2022/03/16 07:59:25;;;;;;;67.20;37.15;;;;;;;11.93;70.46;101526.75;6126263;23;20430;-87
2022/03/16 08:01:51;;;;;;;64.70;37.67;;;;;;;11.82;71.48;101528.59;6127449;23;20017;-87
2022/03/16 08:04:16;;;;;;;63.40;37.45;;;;;;;11.83;72.05;101532.09;6125469;23;20010;-88
2022/03/16 08:06:42;;;;;;;71.00;36.63;;;;;;;11.80;72.83;101527.88;6127559;23;20010;-91
2022/03/16 08:09:10;;;;;;;64.45;37.90;;;;;;;11.72;73.27;101525.13;6129216;23;20006;-91
2022/03/16 08:11:39;;;;;;;64.57;36.95;;;;;;;11.88;73.16;101533.31;6135694;23;20402;-93
2022/03/16 08:14:06;;;;;;;65.32;38.22;;;;;;;11.85;73.63;101533.63;6135934;23;20279;-93
2022/03/16 08:16:31;;;;;;;63.05;37.42;;;;;;;11.96;72.57;101531.75;6138061;23;20501;-93
2022/03/16 08:18:57;;;;;;;63.03;35.55;;;;;;;11.97;71.88;101533.41;6080211;23;20085;-88
2022/03/16 08:21:23;;;;;;;59.38;37.15;;;;;;;11.97;72.29;101533.41;6143314;23;20021;-89
2022/03/16 08:23:49;;;;;;;68.20;37.22;;;;;;;11.87;72.91;101526.31;6147201;23;20029;-88
2022/03/16 08:26:16;;;;;;;71.32;36.70;;;;;;;11.83;73.44;101522.28;6146808;23;20010;-88
2022/03/16 08:28:42;;;;;;;68.80;37.00;;;;;;;11.86;73.51;101521.97;6119941;23;20016;-90
2022/03/16 08:31:11;;;;;;;68.60;33.88;;;;;;;11.82;73.38;101523.28;6133055;23;20017;-91
2022/03/16 08:33:37;;;;;;;59.47;34.55;;;;;;;11.98;72.35;101527.97;6132890;23;20010;-91
2022/03/16 08:36:07;;;;;;;59.75;32.55;;;;;;;12.01;72.43;101521.50;6135486;23;20014;-92
2022/03/16 08:38:37;;;;;;;60.58;32.83;;;;;;;11.92;72.64;101525.91;6133568;23;20014;-90
2022/03/16 08:41:07;;;;;;;62.97;33.53;;;;;;;11.99;72.63;101532.31;6133600;23;20395;-91
2022/03/16 08:43:34;;;;;;;55.03;32.65;;;;;;;12.08;72.11;101535.88;6104364;23;20480;-89
2022/03/16 08:46:00;;;;;;;56.47;32.25;;;;;;;12.19;72.04;101530.38;6128092;23;20022;-89
2022/03/16 08:48:27;;;;;;;59.25;31.67;;;;;;;12.48;70.82;101525.72;6133189;23;20331;-90
2022/03/16 08:50:53;;;;;;;55.80;32.38;;;;;;;12.52;70.51;101529.78;6138599;23;20017;-90
2022/03/16 08:53:21;;;;;;;58.38;31.13;;;;;;;12.44;70.58;101524.34;6133802;23;20021;-93
2022/03/16 08:55:48;;;;;;;57.75;30.67;;;;;;;12.51;71.19;101525.44;6140788;23;20024;-89
2022/03/16 08:58:16;;;;;;;56.90;31.15;;;;;;;12.66;70.98;101521.25;6139105;23;20029;-90
2022/03/16 09:00:49;;;;;;;61.33;32.58;;;;;;;12.72;71.03;101525.16;6161035;23;20461;-90
2022/03/16 09:03:15;;;;;;;54.85;32.33;;;;;;;12.82;70.72;101521.44;6109005;23;20025;-90
2022/03/16 09:05:43;;;;;;;54.88;31.83;;;;;;;13.00;70.15;101528.56;6135408;23;20017;-91
2022/03/16 09:08:18;;;;;;;58.03;32.22;;;;;;;13.12;70.34;101535.38;6129164;23;20405;-91
2022/03/16 09:10:47;;;;;;;56.42;31.67;;;;;;;13.22;69.11;101538.78;6151413;23;20015;-91
2022/03/16 09:13:15;;;;;;;55.53;31.17;;;;;;;13.41;68.16;101543.91;6129571;23;20006;-88
2022/03/16 09:15:43;;;;;;;57.90;31.42;;;;;;;13.40;68.80;101537.75;6152929;23;20315;-90
2022/03/16 09:18:09;;;;;;;54.88;30.98;;;;;;;13.31;68.88;101528.03;6151887;23;20089;-89
2022/03/16 09:20:35;;;;;;;54.65;30.15;;;;;;;13.33;69.04;101535.84;6125825;23;20036;-89
2022/03/16 09:23:01;;;;;;;60.88;31.20;;;;;;;13.30;69.97;101530.84;6126215;23;20006;-89
2022/03/16 09:25:27;;;;;;;58.92;32.33;;;;;;;13.43;69.42;101525.94;6126318;23;20081;-89
2022/03/16 09:27:54;;;;;;;56.33;30.80;;;;;;;13.44;69.94;101522.28;6129552;23;20394;-90
2022/03/16 09:30:39;;;;;;;61.83;30.35;;;;;;;13.75;68.55;101530.66;6108304;23;20500;-90
2022/03/16 09:33:05;;;;;;;49.80;28.52;;;;;;;13.90;67.84;101518.38;6135685;23;20073;-89
2022/03/16 09:35:33;;;;;;;55.05;29.10;;;;;;;14.41;65.94;101507.63;6114158;23;20013;-88
2022/03/16 09:37:59;;;;;;;51.42;29.65;;;;;;;14.61;64.39;101507.34;6126091;23;20029;-86
2022/03/16 09:40:25;;;;;;;58.13;29.33;;;;;;;14.32;65.55;101499.72;6133995;23;20422;-91
2022/03/16 09:42:52;;;;;;;51.28;30.58;;;;;;;14.08;67.14;101499.66;6125312;23;20450;-88
2022/03/16 09:45:22;;;;;;;62.53;30.27;;;;;;;13.89;68.45;101501.56;6128821;23;20014;-89
2022/03/16 09:47:49;;;;;;;57.03;30.17;;;;;;;13.97;68.35;101498.94;6128292;23;20002;-89
2022/03/16 09:50:19;;;;;;;54.47;29.40;;;;;;;13.96;67.98;101489.28;6128944;23;20025;-88
2022/03/16 09:52:46;;;;;;;52.42;30.15;;;;;;;13.95;67.96;101495.59;6131344;23;20143;-88
2022/03/16 09:55:17;;;;;;;52.50;30.42;;;;;;;13.87;68.51;101494.72;6134558;23;20010;-86
2022/03/16 09:57:43;;;;;;;58.75;30.88;;;;;;;13.87;68.14;101487.56;6140941;23;20017;-88
2022/03/16 10:00:13;;;;;;;54.88;29.00;;;;;;;13.95;68.01;101478.78;6131252;23;20006;-87
2022/03/16 10:02:39;;;;;;;55.50;29.02;;;;;;;13.94;68.02;101483.28;6103367;23;20053;-86
2022/03/16 10:05:09;;;;;;;52.47;28.35;;;;;;;13.91;68.21;101477.44;6131252;23;20021;-87
2022/03/16 10:07:37;;;;;;;50.72;27.50;;;;;;;14.02;68.02;101465.66;6128571;23;20016;-85
2022/03/16 10:15:38;;;;;;;44.17;27.40;;;;;;;14.40;66.83;101473.09;6164439;23;20068;-85
2022/03/16 10:18:05;;;;;;;49.72;28.92;;;;;;;14.43;66.74;101456.78;6142170;23;20065;-85
2022/03/16 10:20:40;;;;;;;47.92;26.45;;;;;;;14.57;66.62;101458.81;6168051;23;20018;-87
2022/03/16 10:23:14;;;;;;;40.72;24.80;;;;;;;14.65;66.38;101456.13;6164618;23;20041;-86
2022/03/16 10:25:45;;;;;;;46.53;24.70;;;;;;;14.66;66.51;101462.31;6144732;23;20092;-86
2022/03/16 10:28:30;;;;;;;46.60;25.70;;;;;;;14.46;67.26;101461.78;6147710;23;20014;-88
2022/03/16 10:31:02;;;;;;;41.65;25.33;;;;;;;14.38;67.63;101454.59;6145855;23;20070;-89
2022/03/16 10:33:30;;;;;;;44.95;24.80;;;;;;;14.29;67.35;101465.38;6143460;23;20014;-88
2022/03/16 10:36:17;;;;;;;47.22;23.98;;;;;;;14.21;67.47;101454.72;6169287;23;20014;-87
2022/03/16 10:38:55;;;;;;;40.08;22.77;;;;;;;14.31;67.05;101455.41;6143869;23;20017;-86
2022/03/16 10:47:15;;;;;;;40.75;23.15;;;;;;;14.65;65.68;101444.66;6140157;23;20389;-85
2022/03/16 10:49:44;;;;;;;40.60;22.65;;;;;;;14.49;66.38;101432.94;6117619;23;20020;-89
2022/03/16 10:52:17;;;;;;;40.92;22.30;;;;;;;14.56;66.37;101430.44;6161171;23;20038;-87
2022/03/16 10:54:47;;;;;;;46.10;23.77;;;;;;;14.59;66.26;101430.13;6131928;23;20010;-87
2022/03/16 10:57:13;;;;;;;38.25;23.77;;;;;;;14.64;66.26;101417.13;6101360;23;20034;-88
2022/03/16 10:59:42;;;;;;;39.72;22.02;;;;;;;14.86;65.78;101413.78;6125136;23;20021;-87
2022/03/16 11:02:12;;;;;;;46.20;22.42;;;;;;;15.02;64.76;101412.91;6102445;23;20013;-86
2022/03/16 11:04:40;;;;;;;31.10;19.45;;;;;;;15.13;64.33;101417.06;6130109;23;20130;-91
2022/03/16 11:07:07;;;;;;;37.00;20.48;;;;;;;15.07;64.35;101415.09;6130677;23;20010;-89
2022/03/16 11:09:34;;;;;;;40.33;18.85;;;;;;;15.16;64.42;101414.06;6126806;23;20013;-89
2022/03/16 11:14:48;;;;;;;37.60;19.83;;;;;;;15.27;63.69;101413.72;6133409;23;20048;-86
2022/03/16 11:17:15;;;;;;;32.42;17.30;;;;;;;15.21;62.91;101411.72;6134107;23;20018;-86
2022/03/16 11:19:46;;;;;;;32.67;18.55;;;;;;;15.09;64.08;101410.41;6128300;23;20014;-88
2022/03/16 11:22:19;;;;;;;40.38;19.50;;;;;;;15.15;64.79;101402.53;6153498;23;20446;-87
2022/03/16 11:24:54;;;;;;;34.83;19.38;;;;;;;15.47;65.26;101404.31;6129867;23;20036;-87